createdAt,value
2018-07-26T00:00:32.871Z,100653.38
2018-07-26T00:01:33.639Z,100652.58
2018-07-26T00:02:34.413Z,100652.12
2018-07-26T00:03:35.225Z,100651.89
2018-07-26T00:04:36.000Z,100651.14
2018-07-26T00:05:36.773Z,100650.63
2018-07-26T00:06:37.549Z,100650.50
2018-07-26T00:07:38.325Z,100650.40
2018-07-26T00:08:39.133Z,100650.55
2018-07-26T00:09:39.912Z,100650.80
2018-07-26T00:10:40.686Z,100651.44
2018-07-26T00:11:41.462Z,100652.10
2018-07-26T00:12:42.237Z,100652.59
2018-07-26T00:13:43.043Z,100653.55
2018-07-26T00:14:43.827Z,100654.08
2018-07-26T00:15:44.603Z,100654.75
2018-07-26T00:16:45.391Z,100655.19
2018-07-26T00:17:46.155Z,100656.17
2018-07-26T00:18:46.966Z,100656.92
2018-07-26T00:19:47.738Z,100656.91
2018-07-26T00:20:48.513Z,100657.42
2018-07-26T00:21:49.289Z,100657.50
2018-07-26T00:22:50.068Z,100658.19
2018-07-26T00:23:50.871Z,100658.27
2018-07-26T00:24:51.649Z,100658.36
2018-07-26T00:25:52.424Z,100659.31
2018-07-26T00:26:53.200Z,100659.75
2018-07-26T00:27:53.984Z,100660.28
2018-07-26T00:28:54.792Z,100660.64
2018-07-26T00:29:55.563Z,100661.20
2018-07-26T00:30:56.347Z,100661.63
2018-07-26T00:31:57.111Z,100662.61
2018-07-26T00:32:57.900Z,100663.27
2018-07-26T00:33:58.705Z,100663.62
2018-07-26T00:34:59.476Z,100664.31
2018-07-26T00:36:00.252Z,100665.07
2018-07-26T00:37:01.030Z,100665.42
2018-07-26T00:38:01.818Z,100665.84
2018-07-26T00:39:02.610Z,100666.61
2018-07-26T00:40:03.391Z,100667.37
2018-07-26T00:41:04.164Z,100668.82
2018-07-26T00:42:04.941Z,100668.92
2018-07-26T00:43:04.717Z,100670.03
2018-07-26T00:44:06.528Z,100671.14
2018-07-26T00:45:07.726Z,100672.17
2018-07-26T00:46:15.166Z,100691.17
2018-07-26T00:47:15.939Z,100685.13
2018-07-26T00:48:16.722Z,100685.05
2018-07-26T00:49:17.525Z,100685.19
2018-07-26T00:50:18.316Z,100685.45
2018-07-26T00:51:19.096Z,100685.22
2018-07-26T00:52:18.852Z,100685.31
2018-07-26T00:53:20.626Z,100684.92
2018-07-26T00:54:21.431Z,100685.03
2018-07-26T00:55:22.207Z,100685.03
2018-07-26T00:56:22.981Z,100684.78
2018-07-26T00:57:23.759Z,100685.20
2018-07-26T00:58:24.530Z,100684.78
2018-07-26T00:59:25.354Z,100684.88
2018-07-26T01:00:26.109Z,100685.40
2018-07-26T01:01:26.890Z,100685.53
2018-07-26T01:02:27.657Z,100685.80
2018-07-26T01:03:28.435Z,100686.15
2018-07-26T01:04:29.241Z,100687.25
2018-07-26T01:05:30.023Z,100687.70
2018-07-26T01:06:30.802Z,100688.45
2018-07-26T01:07:31.569Z,100689.68
2018-07-26T01:08:32.347Z,100691.29
2018-07-26T01:09:33.256Z,100692.11
2018-07-26T01:10:32.943Z,100692.95
2018-07-26T01:11:34.724Z,100693.90
2018-07-26T01:12:35.499Z,100694.16
2018-07-26T01:13:36.273Z,100694.93
2018-07-26T01:14:37.076Z,100695.44
2018-07-26T01:15:37.851Z,100696.38
2018-07-26T01:16:38.710Z,100696.34
2018-07-26T01:17:38.426Z,100697.30
2018-07-26T01:18:40.201Z,100697.83
2018-07-26T01:19:41.012Z,100698.42
2018-07-26T01:20:41.785Z,100699.09
2018-07-26T01:21:42.568Z,100699.43
2018-07-26T01:22:43.332Z,100699.94
2018-07-26T01:23:44.109Z,100700.53
2018-07-26T01:24:44.908Z,100700.72
2018-07-26T01:25:45.689Z,100701.63
2018-07-26T01:26:46.460Z,100701.91
2018-07-26T01:27:47.239Z,100701.80
2018-07-26T01:28:48.013Z,100701.70
2018-07-26T01:29:48.822Z,100702.18
2018-07-26T01:30:49.597Z,100701.95
2018-07-26T01:31:50.369Z,100701.95
2018-07-26T01:32:51.177Z,100701.90
2018-07-26T01:33:51.927Z,100701.91
2018-07-26T01:34:52.741Z,100702.23
2018-07-26T01:35:53.510Z,100702.02
2018-07-26T01:36:54.286Z,100702.17
2018-07-26T01:37:55.064Z,100702.50
2018-07-26T01:38:55.845Z,100702.73
2018-07-26T01:39:56.649Z,100702.59
2018-07-26T01:40:57.425Z,100702.98
2018-07-26T01:41:58.289Z,100702.84
2018-07-26T01:42:57.990Z,100703.07
2018-07-26T01:43:59.775Z,100703.33
2018-07-26T01:45:00.578Z,100703.51
2018-07-26T01:46:01.351Z,100703.82
2018-07-26T01:47:02.130Z,100703.83
2018-07-26T01:48:02.916Z,100704.19
2018-07-26T01:49:03.678Z,100704.67
2018-07-26T01:50:04.489Z,100704.91
2018-07-26T01:51:05.261Z,100705.56
2018-07-26T01:52:06.045Z,100705.98
2018-07-26T01:53:06.851Z,100706.91
2018-07-26T01:54:07.604Z,100706.63
2018-07-26T01:55:08.416Z,100706.91
2018-07-26T01:56:09.183Z,100707.55
2018-07-26T01:57:09.968Z,100707.97
2018-07-26T01:58:09.739Z,100708.27
2018-07-26T01:59:11.514Z,100707.91
2018-07-26T02:00:13.330Z,100708.31
2018-07-26T02:01:13.106Z,100708.16
2018-07-26T02:02:13.880Z,100708.84
2018-07-26T02:03:14.655Z,100708.98
2018-07-26T02:04:15.429Z,100708.77
2018-07-26T02:05:16.240Z,100708.81
2018-07-26T02:06:17.014Z,100709.27
2018-07-26T02:07:17.790Z,100708.72
2018-07-26T02:08:18.566Z,100708.95
2018-07-26T02:09:19.345Z,100708.39
2018-07-26T02:10:20.152Z,100708.55
2018-07-26T02:11:20.939Z,100708.72
2018-07-26T02:12:21.716Z,100708.17
2018-07-26T02:13:22.485Z,100707.63
2018-07-26T02:14:23.281Z,100707.39
2018-07-26T02:15:24.066Z,100706.66
2018-07-26T02:16:24.842Z,100706.60
2018-07-26T02:17:25.645Z,100706.30
2018-07-26T02:18:26.404Z,100706.23
2018-07-26T02:19:27.179Z,100705.95
2018-07-26T02:20:27.984Z,100706.16
2018-07-26T02:21:28.765Z,100706.09
2018-07-26T02:22:29.537Z,100705.55
2018-07-26T02:23:30.317Z,100705.48
2018-07-26T02:24:31.092Z,100704.92
2018-07-26T02:25:31.894Z,100704.89
2018-07-26T02:26:32.673Z,100704.95
2018-07-26T02:27:33.445Z,100705.16
2018-07-26T02:28:34.220Z,100705.39
2018-07-26T02:29:35.001Z,100705.63
2018-07-26T02:30:35.814Z,100706.14
2018-07-26T02:31:36.593Z,100706.60
2018-07-26T02:32:37.362Z,100707.11
2018-07-26T02:33:38.141Z,100707.86
2018-07-26T02:34:38.912Z,100708.13
2018-07-26T02:35:39.717Z,100708.52
2018-07-26T02:36:40.565Z,100708.98
2018-07-26T02:37:40.268Z,100708.92
2018-07-26T02:38:42.480Z,100708.88
2018-07-26T02:41:46.982Z,100711.13
2018-07-26T02:42:47.755Z,100707.84
2018-07-26T02:43:48.531Z,100707.84
2018-07-26T02:44:49.337Z,100707.38
2018-07-26T02:45:50.106Z,100707.06
2018-07-26T02:46:50.877Z,100706.75
2018-07-26T02:47:51.655Z,100707.34
2018-07-26T02:48:52.429Z,100707.64
2018-07-26T02:49:53.229Z,100707.72
2018-07-26T02:50:54.005Z,100708.17
2018-07-26T02:51:54.782Z,100708.40
2018-07-26T02:52:55.557Z,100709.09
2018-07-26T02:53:56.333Z,100709.40
2018-07-26T02:54:57.157Z,100710.52
2018-07-26T02:55:57.929Z,100710.86
2018-07-26T02:56:58.705Z,100710.69
2018-07-26T02:57:59.477Z,100710.94
2018-07-26T02:59:00.253Z,100711.16
2018-07-26T03:00:01.057Z,100711.25
2018-07-26T03:01:01.829Z,100711.73
2018-07-26T03:02:02.611Z,100711.81
2018-07-26T03:03:04.385Z,100711.55
2018-07-26T03:04:04.161Z,100711.28
2018-07-26T03:05:05.416Z,100711.59
2018-07-26T03:06:05.178Z,100711.65
2018-07-26T03:07:06.046Z,100711.75
2018-07-26T03:08:05.732Z,100711.54
2018-07-26T03:09:07.515Z,100711.37
2018-07-26T03:10:08.320Z,100711.20
2018-07-26T03:11:09.084Z,100711.48
2018-07-26T03:12:09.856Z,100711.66
2018-07-26T03:13:10.640Z,100712.33
2018-07-26T03:14:11.419Z,100712.50
2018-07-26T03:15:12.217Z,100712.23
2018-07-26T03:16:12.991Z,100712.73
2018-07-26T03:17:13.768Z,100713.28
2018-07-26T03:18:14.543Z,100713.43
2018-07-26T03:19:15.319Z,100713.63
2018-07-26T03:20:16.131Z,100713.73
2018-07-26T03:21:16.908Z,100713.98
2018-07-26T03:22:17.769Z,100714.23
2018-07-26T03:23:17.470Z,100715.00
2018-07-26T03:24:19.244Z,100715.13
2018-07-26T03:25:20.688Z,100715.09
2018-07-26T03:26:20.467Z,100715.03
2018-07-26T03:27:21.250Z,100715.27
2018-07-26T03:28:22.035Z,100714.73
2018-07-26T03:29:22.799Z,100715.01
2018-07-26T03:30:23.613Z,100714.97
2018-07-26T03:31:24.384Z,100715.35
2018-07-26T03:32:25.158Z,100715.83
2018-07-26T03:33:25.929Z,100716.44
2018-07-26T03:34:26.707Z,100716.95
2018-07-26T03:35:27.508Z,100717.64
2018-07-26T03:36:27.388Z,100718.19
2018-07-26T03:37:29.088Z,100718.50
2018-07-26T03:38:29.956Z,100719.29
2018-07-26T03:39:29.658Z,100719.34
2018-07-26T03:40:31.464Z,100719.40
2018-07-26T03:41:32.266Z,100720.28
2018-07-26T03:42:33.117Z,100721.02
2018-07-26T03:43:32.847Z,100721.48
2018-07-26T03:44:33.617Z,100721.30
2018-07-26T03:45:35.405Z,100721.45
2018-07-26T03:46:36.185Z,100721.63
2018-07-26T03:47:36.964Z,100722.05
2018-07-26T03:48:37.742Z,100721.81
2018-07-26T03:49:38.523Z,100722.17
2018-07-26T03:50:39.327Z,100722.58
2018-07-26T03:51:40.188Z,100722.77
2018-07-26T03:52:39.930Z,100723.27
2018-07-26T03:53:40.669Z,100723.28
2018-07-26T03:54:43.443Z,100723.24
2018-07-26T03:55:43.249Z,100724.11
2018-07-26T03:56:43.025Z,100724.63
2018-07-26T03:57:44.848Z,100725.17
2018-07-26T03:58:44.579Z,100725.94
2018-07-26T03:59:46.356Z,100726.62
2018-07-26T04:00:47.163Z,100727.76
2018-07-26T04:01:47.932Z,100728.16
2018-07-26T04:02:48.711Z,100729.06
2018-07-26T04:03:49.489Z,100729.27
2018-07-26T04:04:50.265Z,100730.05
2018-07-26T04:05:51.069Z,100730.27
2018-07-26T04:06:51.848Z,100731.06
2018-07-26T04:07:52.629Z,100731.97
2018-07-26T04:08:53.403Z,100732.75
2018-07-26T04:09:54.182Z,100733.03
2018-07-26T04:10:54.993Z,100733.37
2018-07-26T04:11:55.765Z,100733.08
2018-07-26T04:12:56.544Z,100733.45
2018-07-26T04:13:57.340Z,100733.50
2018-07-26T04:14:57.093Z,100733.42
2018-07-26T04:15:58.917Z,100733.50
2018-07-26T04:16:59.686Z,100733.70
2018-07-26T04:18:00.469Z,100733.77
2018-07-26T04:19:01.240Z,100734.23
2018-07-26T04:20:02.038Z,100734.23
2018-07-26T04:21:01.823Z,100734.72
2018-07-26T04:22:03.593Z,100735.44
2018-07-26T04:23:04.380Z,100735.50
2018-07-26T04:24:05.158Z,100735.37
2018-07-26T04:25:05.939Z,100735.95
2018-07-26T04:26:06.763Z,100736.14
2018-07-26T04:27:06.512Z,100736.33
2018-07-26T04:28:08.294Z,100736.52
2018-07-26T04:29:09.063Z,100736.96
2018-07-26T04:30:09.843Z,100737.40
2018-07-26T04:31:10.654Z,100737.66
2018-07-26T04:32:11.485Z,100737.42
2018-07-26T04:33:11.209Z,100737.27
2018-07-26T04:34:12.979Z,100737.53
2018-07-26T04:35:13.758Z,100738.31
2018-07-26T04:36:14.557Z,100738.31
2018-07-26T04:37:15.344Z,100738.70
2018-07-26T04:38:16.108Z,100738.81
2018-07-26T04:39:16.892Z,100739.52
2018-07-26T04:40:17.665Z,100739.71
2018-07-26T04:41:18.571Z,100739.65
2018-07-26T04:42:18.711Z,100739.77
2018-07-26T04:43:19.970Z,100739.95
2018-07-26T04:44:19.236Z,100740.19
2018-07-26T04:45:25.682Z,100739.72
2018-07-26T04:46:27.487Z,100749.90
2018-07-26T04:47:28.259Z,100749.45
2018-07-26T04:48:29.042Z,100749.20
2018-07-26T04:49:29.811Z,100748.97
2018-07-26T04:50:30.592Z,100748.58
2018-07-26T04:51:31.400Z,100747.88
2018-07-26T04:52:32.175Z,100747.95
2018-07-26T04:53:32.963Z,100747.22
2018-07-26T04:54:33.743Z,100746.45
2018-07-26T04:55:33.503Z,100746.27
2018-07-26T04:56:35.313Z,100745.70
2018-07-26T04:57:35.088Z,100745.48
2018-07-26T04:58:36.872Z,100744.70
2018-07-26T04:59:37.650Z,100744.27
2018-07-26T05:00:38.441Z,100743.91
2018-07-26T05:01:39.241Z,100742.84
2018-07-26T05:02:40.020Z,100743.02
2018-07-26T05:03:40.790Z,100742.36
2018-07-26T05:04:41.567Z,100741.31
2018-07-26T05:05:42.354Z,100740.75
2018-07-26T05:06:43.162Z,100740.28
2018-07-26T05:07:43.945Z,100739.61
2018-07-26T05:08:44.711Z,100739.27
2018-07-26T05:09:45.490Z,100738.67
2018-07-26T05:10:46.270Z,100737.77
2018-07-26T05:11:47.094Z,100737.24
2018-07-26T05:12:47.859Z,100737.08
2018-07-26T05:13:48.640Z,100736.64
2018-07-26T05:14:49.405Z,100736.20
2018-07-26T05:15:50.184Z,100735.62
2018-07-26T05:16:50.985Z,100735.17
2018-07-26T05:17:51.768Z,100734.58
2018-07-26T05:18:52.541Z,100734.63
2018-07-26T05:19:53.319Z,100734.72
2018-07-26T05:20:55.093Z,100734.79
2018-07-26T05:21:55.242Z,100734.39
2018-07-26T05:22:55.017Z,100734.47
2018-07-26T05:23:55.801Z,100734.08
2018-07-26T05:24:56.569Z,100734.41
2018-07-26T05:25:57.352Z,100734.33
2018-07-26T05:26:58.151Z,100734.77
2018-07-26T05:27:58.926Z,100734.98
2018-07-26T05:28:59.748Z,100734.95
2018-07-26T05:30:00.520Z,100734.86
2018-07-26T05:31:01.291Z,100734.84
2018-07-26T05:32:02.111Z,100734.85
2018-07-26T05:33:01.870Z,100734.92
2018-07-26T05:34:03.697Z,100734.78
2018-07-26T05:35:03.427Z,100734.69
2018-07-26T05:36:05.225Z,100734.93
2018-07-26T05:37:06.018Z,100735.03
2018-07-26T05:38:06.796Z,100734.77
2018-07-26T05:39:07.590Z,100734.58
2018-07-26T05:40:08.357Z,100734.55
2018-07-26T05:41:09.115Z,100733.95
2018-07-26T05:42:09.922Z,100733.73
2018-07-26T05:43:10.734Z,100733.42
2018-07-26T05:44:10.481Z,100733.42
2018-07-26T05:45:12.255Z,100733.56
2018-07-26T05:46:13.033Z,100733.91
2018-07-26T05:47:13.846Z,100733.75
2018-07-26T05:48:14.624Z,100733.27
2018-07-26T05:49:15.397Z,100733.25
2018-07-26T05:50:16.185Z,100733.47
2018-07-26T05:51:16.946Z,100733.07
2018-07-26T05:52:17.760Z,100733.46
2018-07-26T05:53:18.560Z,100733.42
2018-07-26T05:54:18.313Z,100733.43
2018-07-26T05:55:20.084Z,100733.47
2018-07-26T05:56:20.866Z,100733.22
2018-07-26T05:57:21.670Z,100733.05
2018-07-26T05:58:22.538Z,100733.53
2018-07-26T05:59:22.240Z,100733.84
2018-07-26T06:00:24.015Z,100734.06
2018-07-26T06:01:24.795Z,100734.66
2018-07-26T06:02:25.595Z,100734.58
2018-07-26T06:03:26.382Z,100734.84
2018-07-26T06:04:27.155Z,100734.48
2018-07-26T06:05:27.955Z,100735.48
2018-07-26T06:06:28.717Z,100735.54
2018-07-26T06:07:29.532Z,100735.67
2018-07-26T06:08:30.304Z,100735.71
2018-07-26T06:09:31.088Z,100736.37
2018-07-26T06:10:31.862Z,100736.41
2018-07-26T06:11:32.643Z,100736.02
2018-07-26T06:12:33.453Z,100736.28
2018-07-26T06:13:34.233Z,100736.19
2018-07-26T06:14:36.006Z,100736.27
2018-07-26T06:15:35.781Z,100735.83
2018-07-26T06:16:36.574Z,100736.13
2018-07-26T06:17:37.374Z,100735.45
2018-07-26T06:18:37.160Z,100735.58
2018-07-26T06:19:38.929Z,100735.08
2018-07-26T06:20:39.729Z,100735.31
2018-07-26T06:21:39.479Z,100735.49
2018-07-26T06:22:41.285Z,100735.23
2018-07-26T06:23:42.071Z,100735.14
2018-07-26T06:24:42.857Z,100735.12
2018-07-26T06:25:43.633Z,100735.16
2018-07-26T06:26:44.433Z,100734.92
2018-07-26T06:27:44.214Z,100734.63
2018-07-26T06:28:45.985Z,100733.84
2018-07-26T06:29:46.762Z,100733.62
2018-07-26T06:30:47.539Z,100733.84
2018-07-26T06:31:48.322Z,100733.30
2018-07-26T06:32:49.155Z,100733.23
2018-07-26T06:33:49.988Z,100733.79
2018-07-26T06:34:49.689Z,100733.70
2018-07-26T06:35:51.462Z,100733.80
2018-07-26T06:36:52.231Z,100734.08
2018-07-26T06:37:53.036Z,100733.97
2018-07-26T06:38:53.828Z,100733.73
2018-07-26T06:39:54.618Z,100733.38
2018-07-26T06:40:55.387Z,100733.23
2018-07-26T06:41:56.593Z,100732.53
2018-07-26T06:42:56.922Z,100732.41
2018-07-26T06:46:08.263Z,100723.88
2018-07-26T06:47:10.058Z,100727.95
2018-07-26T06:48:09.864Z,100727.77
2018-07-26T06:49:11.629Z,100726.97
2018-07-26T06:50:12.398Z,100727.14
2018-07-26T06:51:13.176Z,100727.16
2018-07-26T06:52:14.034Z,100726.48
2018-07-26T06:53:13.765Z,100725.88
2018-07-26T06:54:15.541Z,100725.48
2018-07-26T06:55:16.322Z,100725.52
2018-07-26T06:56:17.099Z,100725.28
2018-07-26T06:57:17.875Z,100725.48
2018-07-26T06:58:18.696Z,100725.13
2018-07-26T06:59:19.466Z,100724.41
2018-07-26T07:00:20.245Z,100723.97
2018-07-26T07:01:21.017Z,100723.94
2018-07-26T07:02:21.794Z,100723.27
2018-07-26T07:03:22.594Z,100723.30
2018-07-26T07:04:23.372Z,100723.70
2018-07-26T07:05:24.147Z,100723.37
2018-07-26T07:06:25.920Z,100723.77
2018-07-26T07:07:25.697Z,100723.61
2018-07-26T07:08:26.521Z,100723.65
2018-07-26T07:09:27.286Z,100723.54
2018-07-26T07:10:28.069Z,100723.67
2018-07-26T07:11:28.840Z,100723.33
2018-07-26T07:12:29.619Z,100723.30
2018-07-26T07:13:30.424Z,100722.89
2018-07-26T07:14:31.203Z,100722.75
2018-07-26T07:15:31.994Z,100722.23
2018-07-26T07:16:32.764Z,100722.23
2018-07-26T07:17:33.546Z,100721.95
2018-07-26T07:18:34.392Z,100721.20
2018-07-26T07:19:34.137Z,100720.95
2018-07-26T07:20:36.974Z,100720.42
2018-07-26T07:21:35.693Z,100720.03
2018-07-26T07:22:37.472Z,100719.48
2018-07-26T07:23:38.272Z,100719.05
2018-07-26T07:24:39.045Z,100718.28
2018-07-26T07:25:39.845Z,100718.09
2018-07-26T07:26:40.613Z,100717.59
2018-07-26T07:27:41.532Z,100717.70
2018-07-26T07:28:41.200Z,100717.53
2018-07-26T07:29:42.979Z,100717.25
2018-07-26T07:30:43.755Z,100717.20
2018-07-26T07:31:44.532Z,100716.81
2018-07-26T07:32:45.308Z,100717.19
2018-07-26T07:33:46.114Z,100716.89
2018-07-26T07:34:46.897Z,100716.77
2018-07-26T07:35:47.668Z,100716.10
2018-07-26T07:36:48.445Z,100715.16
2018-07-26T07:37:49.218Z,100714.56
2018-07-26T07:38:50.024Z,100714.80
2018-07-26T07:39:50.802Z,100714.00
2018-07-26T07:40:51.588Z,100713.02
2018-07-26T07:41:52.374Z,100712.16
2018-07-26T07:42:53.137Z,100711.50
2018-07-26T07:43:53.945Z,100710.91
2018-07-26T07:44:54.725Z,100710.04
2018-07-26T07:45:55.496Z,100709.28
2018-07-26T07:46:56.274Z,100708.56
2018-07-26T07:47:57.057Z,100707.92
2018-07-26T07:48:57.857Z,100707.45
2018-07-26T07:49:58.635Z,100707.16
2018-07-26T07:50:59.413Z,100707.11
2018-07-26T07:52:00.203Z,100706.56
2018-07-26T07:53:00.985Z,100706.36
2018-07-26T07:54:00.790Z,100705.56
2018-07-26T07:55:02.653Z,100705.41
2018-07-26T07:56:02.356Z,100705.07
2018-07-26T07:57:04.131Z,100704.52
2018-07-26T07:58:04.909Z,100703.77
2018-07-26T07:59:05.738Z,100703.73
2018-07-26T08:00:06.501Z,100703.11
2018-07-26T08:01:07.271Z,100703.33
2018-07-26T08:02:08.065Z,100702.76
2018-07-26T08:03:08.827Z,100702.41
2018-07-26T08:04:09.632Z,100702.24
2018-07-26T08:05:10.418Z,100702.33
2018-07-26T08:06:11.195Z,100702.20
2018-07-26T08:07:11.975Z,100701.91
2018-07-26T08:08:12.745Z,100701.99
2018-07-26T08:09:13.550Z,100702.00
2018-07-26T08:10:14.326Z,100701.25
2018-07-26T08:11:15.145Z,100700.77
2018-07-26T08:12:14.881Z,100700.39
2018-07-26T08:13:16.655Z,100699.73
2018-07-26T08:14:17.480Z,100699.63
2018-07-26T08:15:18.250Z,100699.44
2018-07-26T08:16:19.027Z,100698.98
2018-07-26T08:17:19.806Z,100698.03
2018-07-26T08:18:20.590Z,100697.53
2018-07-26T08:19:21.403Z,100696.48
2018-07-26T08:20:22.177Z,100696.09
2018-07-26T08:21:22.986Z,100695.33
2018-07-26T08:22:22.728Z,100694.78
2018-07-26T08:23:24.506Z,100694.55
2018-07-26T08:24:25.331Z,100694.10
2018-07-26T08:25:26.106Z,100693.48
2018-07-26T08:26:26.884Z,100693.20
2018-07-26T08:27:27.668Z,100693.19
2018-07-26T08:28:28.447Z,100693.10
2018-07-26T08:29:29.277Z,100692.77
2018-07-26T08:30:29.029Z,100692.14
2018-07-26T08:31:30.801Z,100692.08
2018-07-26T08:32:31.618Z,100691.85
2018-07-26T08:33:31.355Z,100691.49
2018-07-26T08:34:33.157Z,100691.94
